M\t Procida — IBJT — position and weather

sailwx.info

Track history (hours):
 
Tides and Currents Weather Stations Pressure Air Temp Water Temp Dewpoint Dewpoint Depression Visibility Wind Speed Wind Dir Waves Ship Positions

M\t Procida

Last reported at 2017-May-26 03:26 UTC. Time now 2017-May-28 18:34 UTC.
Position N 56°02' W 003°42'.

Length 149 m; draft 6.6 m.

Type: Tanker. MMSI: 247258400.

Date/timePositionNaut miles runAvg speedWind from/ knotsBaromVisibWave heightAir tempDewpointWater temp
2017-May-26 03:26N 56°02' W 003°42'0 0.0
2017-May-26 03:00N 56°02' W 003°42'1 0.5
2017-May-26 01:59N 56°02' W 003°41'3 5.7
2017-May-26 01:30N 56°02' W 003°36'4 8.0
2017-May-26 01:00N 56°01' W 003°29'4 8.5
2017-May-26 00:30N 56°01' W 003°22'613.0
2017-May-26 00:01N 56°03' W 003°10'4 8.3
2017-May-25 23:31N 56°04' W 003°03'2 3.6
2017-May-25 23:01N 56°04' W 003°00'1 1.4
2017-May-25 22:30N 56°05' W 002°59'0 0.9
2017-May-25 22:01N 56°05' W 002°58'3 6.6
2017-May-25 21:31N 56°06' W 002°53'612.4
2017-May-25 21:01N 56°08' W 002°42'612.1
2017-May-25 20:30N 56°08' W 002°31'612.5
2017-May-25 20:01N 56°07' W 002°20'612.6
2017-May-25 19:31N 56°05' W 002°09'612.7
2017-May-25 19:01N 56°03' W 001°59'612.5
2017-May-25 18:31N 56°02' W 001°48'612.4
2017-May-25 18:00N 55°60' W 001°37'812.4
2017-May-25 17:23N 55°57' W 001°25'511.9
2017-May-25 16:58N 55°54' W 001°17'611.9
2017-May-25 16:27N 55°52' W 001°07'20611.3
2017-May-24 22:20N 53°56' E 003°49'10310.3
2017-May-24 12:17N 52°15' E 003°17'412.8
2017-May-24 12:00N 52°13' E 003°22'612.7
2017-May-24 11:30N 52°09' E 003°30'612.5
2017-May-24 11:00N 52°07' E 003°39'612.9
2017-May-24 10:30N 52°04' E 003°49'510.0
2017-May-24 10:00N 52°02' E 003°56'612.4
2017-May-24 09:30N 51°59' E 004°05'4 8.7
2017-May-24 09:00N 51°56' E 004°11'2 2.7
2017-May-24 08:21N 51°55' E 004°12'0 0.0
2017-May-24 08:00N 51°55' E 004°12'0 0.0
2017-May-24 07:30N 51°55' E 004°12'0 0.0
2017-May-24 06:57N 51°55' E 004°12'0 0.0
2017-May-24 06:30N 51°55' E 004°12'0 0.0
2017-May-24 06:00N 51°55' E 004°12'0 0.0
2017-May-24 05:27N 51°55' E 004°12'0 0.0
2017-May-24 04:51N 51°55' E 004°12'0 0.0
2017-May-24 04:27N 51°55' E 004°12'0 0.0
2017-May-24 03:57N 51°55' E 004°12'0 0.0
2017-May-24 03:30N 51°55' E 004°12'0 0.0
2017-May-24 02:57N 51°55' E 004°12'0 0.0
2017-May-24 02:30N 51°55' E 004°12'0 0.0
2017-May-24 02:00N 51°55' E 004°12'0 0.0
2017-May-24 01:30N 51°55' E 004°12'0 0.0
2017-May-24 00:57N 51°55' E 004°12'0 0.0
2017-May-24 00:26N 51°55' E 004°12'0 0.0
2017-May-24 00:00N 51°55' E 004°12'0 0.0
2017-May-23 23:30N 51°55' E 004°12'0 0.0
2017-May-23 22:56N 51°55' E 004°12'0 0.0
2017-May-23 22:27N 51°55' E 004°12'0 0.0
2017-May-23 22:00N 51°55' E 004°12'0 0.0
2017-May-23 21:27N 51°55' E 004°12'0 0.0
2017-May-23 20:57N 51°55' E 004°12'0 0.0
2017-May-23 20:24N 51°55' E 004°12'0 0.0
2017-May-23 19:57N 51°55' E 004°12'0 0.0
2017-May-23 19:30N 51°55' E 004°12'0 0.0
2017-May-23 18:51N 51°55' E 004°12'0 0.0
2017-May-23 18:30N 51°55' E 004°12'0 0.0
2017-May-23 17:57N 51°55' E 004°12'0 0.0
2017-May-23 17:30N 51°55' E 004°12'0 0.0
2017-May-23 16:57N 51°55' E 004°12'0 0.0
2017-May-23 16:18N 51°55' E 004°12'0 0.0
2017-May-23 15:50N 51°55' E 004°12'0 0.0
2017-May-23 15:15N 51°55' E 004°12'0 0.0
2017-May-23 14:57N 51°55' E 004°12'0 0.0
2017-May-23 14:00N 51°55' E 004°12'0 0.0
2017-May-23 13:27N 51°55' E 004°12'0 0.0
2017-May-23 12:59N 51°55' E 004°12'0 0.0
2017-May-23 12:27N 51°55' E 004°12'0 0.0
2017-May-23 12:00N 51°55' E 004°12'0 0.0
2017-May-23 11:30N 51°55' E 004°12'0 0.0
2017-May-23 10:57N 51°55' E 004°12'0 0.0
2017-May-23 10:27N 51°55' E 004°12'0 0.0
2017-May-23 09:56N 51°55' E 004°12'0 0.0
2017-May-23 09:26N 51°55' E 004°12'0 0.0
2017-May-23 09:00N 51°55' E 004°12'0 0.0
2017-May-23 08:29N 51°55' E 004°12'0 0.0
2017-May-23 08:00N 51°55' E 004°12'0 0.0
2017-May-23 07:30N 51°55' E 004°12'0 0.0
2017-May-23 07:00N 51°55' E 004°12'0 0.0
2017-May-23 06:27N 51°55' E 004°12'0 0.0
2017-May-23 06:00N 51°55' E 004°12'0 0.0
2017-May-23 05:30N 51°55' E 004°12'0 0.0
2017-May-23 04:57N 51°55' E 004°12'0 0.0
2017-May-23 04:30N 51°55' E 004°12'0 0.0
2017-May-23 03:57N 51°55' E 004°12'0 0.0
2017-May-23 03:30N 51°55' E 004°12'0 0.0
2017-May-23 02:57N 51°55' E 004°12'0 0.0
2017-May-23 02:26N 51°55' E 004°12'0 0.0
2017-May-23 01:56N 51°55' E 004°12'0 0.0
2017-May-23 01:30N 51°55' E 004°12'0 0.0
2017-May-23 00:57N 51°55' E 004°12'0 0.0
2017-May-23 00:30N 51°55' E 004°12'0 0.0
2017-May-23 00:00N 51°55' E 004°12'0 0.0
2017-May-22 23:30N 51°55' E 004°12'2 3.5
2017-May-22 23:00N 51°56' E 004°11'4 7.7
2017-May-22 22:30N 51°59' E 004°05'4 8.2
2017-May-22 22:00N 51°60' E 003°59'4 8.1
2017-May-22 21:30N 51°60' E 003°53'510.0
2017-May-22 21:00N 51°60' E 003°45'611.7
2017-May-22 20:30N 52°04' E 003°37'612.5
2017-May-22 20:00N 52°07' E 003°29'3911.6
2017-May-22 16:37N 52°31' E 002°38'1912.9
2017-May-22 15:10N 52°50' E 002°38'312.9
2017-May-22 14:58N 52°52' E 002°38'1212.4
2017-May-22 14:00N 53°04' E 002°37'611.8
2017-May-22 13:30N 53°10' E 002°41'611.8
2017-May-22 13:00N 53°15' E 002°44'611.7
2017-May-22 12:30N 53°21' E 002°47'611.7
2017-May-22 12:01N 53°26' E 002°51'611.8
2017-May-22 11:30N 53°32' E 002°54'612.1
2017-May-22 11:01N 53°37' E 002°58'21111.0
2017-May-21 15:45N 55°59' W 001°34'312.0
2017-May-21 15:30N 55°60' W 001°39'912.3
2017-May-21 14:48N 56°02' W 001°54'412.8
2017-May-21 14:30N 56°03' W 002°00'1312.8
2017-May-21 13:30N 56°06' W 002°22'713.0
2017-May-21 13:00N 56°07' W 002°34'713.4
2017-May-21 12:30N 56°06' W 002°46'713.4
2017-May-21 12:00N 56°04' W 002°57'612.3
2017-May-21 11:31N 56°03' W 003°08'611.6
2017-May-21 11:00N 56°01' W 003°18'610.3
2017-May-21 10:27N 56°01' W 003°28'710.4
2017-May-21 09:46N 56°02' W 003°41'0 1.1
2017-May-21 09:29N 56°02' W 003°41'0 0.6
2017-May-21 09:00N 56°02' W 003°42'0 0.0
2017-May-20 18:24N 56°02' W 003°42'0 0.0
2017-May-20 06:56N 56°02' W 003°42'0 0.0
2017-May-19 06:08N 56°02' W 003°41'0 0.0
2017-May-19 05:56N 56°02' W 003°41'0 0.0
2017-May-19 05:29N 56°02' W 003°42'0 0.0
2017-May-19 04:35N 56°02' W 003°42'0 0.0
2017-May-19 03:26N 56°02' W 003°41'0 0.0
2017-May-19 01:56N 56°02' W 003°41'0 0.0
2017-May-19 01:26N 56°02' W 003°41'0 0.0
2017-May-18 23:56N 56°02' W 003°41'0 0.0
2017-May-18 22:26N 56°02' W 003°42'0 0.0
2017-May-18 21:32N 56°02' W 003°41'0 0.0
2017-May-17 16:56N 56°02' W 003°41'0 0.0
2017-May-17 07:14N 56°02' W 003°42'0 0.0
2017-May-17 06:44N 56°02' W 003°41'0 0.0
2017-May-17 06:28N 56°02' W 003°42'1 1.0
2017-May-17 05:34N 56°02' W 003°40'0 4.3
2017-May-17 05:30N 56°02' W 003°40'810.5
2017-May-17 04:43N 56°00' W 003°25'210.2
2017-May-17 04:30N 56°01' W 003°22'611.8
2017-May-17 04:00N 56°02' W 003°11'4 7.2
2017-May-17 03:30N 56°04' W 003°06'2 4.9
2017-May-17 03:01N 56°06' W 003°06'0 0.1
2017-May-17 02:29N 56°06' W 003°06'0 0.1
2017-May-17 01:59N 56°06' W 003°06'0 0.0
2017-May-17 01:29N 56°06' W 003°06'0 0.0
2017-May-17 00:58N 56°06' W 003°06'0 0.2
2017-May-17 00:28N 56°06' W 003°06'0 0.2
2017-May-16 23:59N 56°06' W 003°06'0 0.0
2017-May-16 23:29N 56°06' W 003°06'0 0.0
2017-May-16 22:59N 56°06' W 003°06'0 0.0
2017-May-16 22:28N 56°06' W 003°06'0 0.0
2017-May-16 21:59N 56°06' W 003°06'0 0.0
2017-May-16 21:28N 56°06' W 003°06'0 0.0
2017-May-16 20:59N 56°06' W 003°06'0 0.0
2017-May-16 20:29N 56°06' W 003°06'0 0.0
2017-May-16 19:59N 56°06' W 003°06'0 0.0
2017-May-16 19:29N 56°06' W 003°06'0 0.0
2017-May-16 18:58N 56°06' W 003°06'0 0.0
2017-May-16 18:29N 56°06' W 003°06'0 0.0
2017-May-16 17:59N 56°06' W 003°06'0 0.0
2017-May-16 17:28N 56°06' W 003°06'0 0.0
2017-May-16 16:59N 56°06' W 003°06'0 0.1
2017-May-16 16:28N 56°06' W 003°06'0 0.0
2017-May-16 15:58N 56°06' W 003°06'0 0.1
2017-May-16 15:29N 56°06' W 003°06'0 0.0
2017-May-16 14:59N 56°06' W 003°06'0 0.1
2017-May-16 14:29N 56°06' W 003°06'0 0.0
2017-May-16 13:29N 56°06' W 003°06'0 0.0
2017-May-16 12:59N 56°06' W 003°06'0 0.0
2017-May-16 12:29N 56°06' W 003°06'0 0.0
2017-May-16 11:59N 56°06' W 003°06'0 0.0
2017-May-16 11:29N 56°06' W 003°06'0 0.1
2017-May-16 10:59N 56°06' W 003°06'0 0.0
2017-May-16 10:29N 56°06' W 003°06'0 0.1
2017-May-16 09:59N 56°06' W 003°06'0 0.0
2017-May-16 09:29N 56°06' W 003°06'0 0.0
2017-May-16 08:59N 56°06' W 003°06'0 0.0
2017-May-16 08:29N 56°06' W 003°06'0 0.0
2017-May-16 07:59N 56°06' W 003°06'0 0.0
2017-May-16 07:29N 56°06' W 003°06'0 0.0
2017-May-16 06:59N 56°06' W 003°06'0 0.0
2017-May-16 06:29N 56°06' W 003°06'0 0.0
2017-May-16 05:59N 56°06' W 003°06'0 0.0
2017-May-16 05:29N 56°06' W 003°06'0 0.0
2017-May-16 04:58N 56°06' W 003°06'0 0.1
2017-May-16 04:29N 56°06' W 003°06'0 0.0
2017-May-16 03:59N 56°06' W 003°06'0 0.2
2017-May-16 03:28N 56°06' W 003°06'  
Track history (hours):
 
Tides and Currents Weather Stations Pressure Air Temp Water Temp Dewpoint Dewpoint Depression Visibility Wind Speed Wind Dir Waves Ship Positions

M\t Procida

Last reported at 2017-May-26 03:26 UTC. Time now 2017-May-28 18:34 UTC.
Position N 56°02' W 003°42'.

Length 149 m; draft 6.6 m.

Type: Tanker. MMSI: 247258400.

Date/timePositionNaut miles runAvg speedWind from/ knotsBaromVisibWave heightAir tempDewpointWater temp
2017-May-26 03:26N 56°02' W 003°42'0 0.0
2017-May-26 03:00N 56°02' W 003°42'1 0.5
2017-May-26 01:59N 56°02' W 003°41'3 5.7
2017-May-26 01:30N 56°02' W 003°36'4 8.0
2017-May-26 01:00N 56°01' W 003°29'4 8.5
2017-May-26 00:30N 56°01' W 003°22'613.0
2017-May-26 00:01N 56°03' W 003°10'4 8.3
2017-May-25 23:31N 56°04' W 003°03'2 3.6
2017-May-25 23:01N 56°04' W 003°00'1 1.4
2017-May-25 22:30N 56°05' W 002°59'0 0.9
2017-May-25 22:01N 56°05' W 002°58'3 6.6
2017-May-25 21:31N 56°06' W 002°53'612.4
2017-May-25 21:01N 56°08' W 002°42'612.1
2017-May-25 20:30N 56°08' W 002°31'612.5
2017-May-25 20:01N 56°07' W 002°20'612.6
2017-May-25 19:31N 56°05' W 002°09'612.7
2017-May-25 19:01N 56°03' W 001°59'612.5
2017-May-25 18:31N 56°02' W 001°48'612.4
2017-May-25 18:00N 55°60' W 001°37'812.4
2017-May-25 17:23N 55°57' W 001°25'511.9
2017-May-25 16:58N 55°54' W 001°17'611.9
2017-May-25 16:27N 55°52' W 001°07'20611.3
2017-May-24 22:20N 53°56' E 003°49'10310.3
2017-May-24 12:17N 52°15' E 003°17'412.8
2017-May-24 12:00N 52°13' E 003°22'612.7
2017-May-24 11:30N 52°09' E 003°30'612.5
2017-May-24 11:00N 52°07' E 003°39'612.9
2017-May-24 10:30N 52°04' E 003°49'510.0
2017-May-24 10:00N 52°02' E 003°56'612.4
2017-May-24 09:30N 51°59' E 004°05'4 8.7
2017-May-24 09:00N 51°56' E 004°11'2 2.7
2017-May-24 08:21N 51°55' E 004°12'0 0.0
2017-May-24 08:00N 51°55' E 004°12'0 0.0
2017-May-24 07:30N 51°55' E 004°12'0 0.0
2017-May-24 06:57N 51°55' E 004°12'0 0.0
2017-May-24 06:30N 51°55' E 004°12'0 0.0
2017-May-24 06:00N 51°55' E 004°12'0 0.0
2017-May-24 05:27N 51°55' E 004°12'0 0.0
2017-May-24 04:51N 51°55' E 004°12'0 0.0
2017-May-24 04:27N 51°55' E 004°12'0 0.0
2017-May-24 03:57N 51°55' E 004°12'0 0.0
2017-May-24 03:30N 51°55' E 004°12'0 0.0
2017-May-24 02:57N 51°55' E 004°12'0 0.0
2017-May-24 02:30N 51°55' E 004°12'0 0.0
2017-May-24 02:00N 51°55' E 004°12'0 0.0
2017-May-24 01:30N 51°55' E 004°12'0 0.0
2017-May-24 00:57N 51°55' E 004°12'0 0.0
2017-May-24 00:26N 51°55' E 004°12'0 0.0
2017-May-24 00:00N 51°55' E 004°12'0 0.0
2017-May-23 23:30N 51°55' E 004°12'0 0.0
2017-May-23 22:56N 51°55' E 004°12'0 0.0
2017-May-23 22:27N 51°55' E 004°12'0 0.0
2017-May-23 22:00N 51°55' E 004°12'0 0.0
2017-May-23 21:27N 51°55' E 004°12'0 0.0
2017-May-23 20:57N 51°55' E 004°12'0 0.0
2017-May-23 20:24N 51°55' E 004°12'0 0.0
2017-May-23 19:57N 51°55' E 004°12'0 0.0
2017-May-23 19:30N 51°55' E 004°12'0 0.0
2017-May-23 18:51N 51°55' E 004°12'0 0.0
2017-May-23 18:30N 51°55' E 004°12'0 0.0
2017-May-23 17:57N 51°55' E 004°12'0 0.0
2017-May-23 17:30N 51°55' E 004°12'0 0.0
2017-May-23 16:57N 51°55' E 004°12'0 0.0
2017-May-23 16:18N 51°55' E 004°12'0 0.0
2017-May-23 15:50N 51°55' E 004°12'0 0.0
2017-May-23 15:15N 51°55' E 004°12'0 0.0
2017-May-23 14:57N 51°55' E 004°12'0 0.0
2017-May-23 14:00N 51°55' E 004°12'0 0.0
2017-May-23 13:27N 51°55' E 004°12'0 0.0
2017-May-23 12:59N 51°55' E 004°12'0 0.0
2017-May-23 12:27N 51°55' E 004°12'0 0.0
2017-May-23 12:00N 51°55' E 004°12'0 0.0
2017-May-23 11:30N 51°55' E 004°12'0 0.0
2017-May-23 10:57N 51°55' E 004°12'0 0.0
2017-May-23 10:27N 51°55' E 004°12'0 0.0
2017-May-23 09:56N 51°55' E 004°12'0 0.0
2017-May-23 09:26N 51°55' E 004°12'0 0.0
2017-May-23 09:00N 51°55' E 004°12'0 0.0
2017-May-23 08:29N 51°55' E 004°12'0 0.0
2017-May-23 08:00N 51°55' E 004°12'0 0.0
2017-May-23 07:30N 51°55' E 004°12'0 0.0
2017-May-23 07:00N 51°55' E 004°12'0 0.0
2017-May-23 06:27N 51°55' E 004°12'0 0.0
2017-May-23 06:00N 51°55' E 004°12'0 0.0
2017-May-23 05:30N 51°55' E 004°12'0 0.0
2017-May-23 04:57N 51°55' E 004°12'0 0.0
2017-May-23 04:30N 51°55' E 004°12'0 0.0
2017-May-23 03:57N 51°55' E 004°12'0 0.0
2017-May-23 03:30N 51°55' E 004°12'0 0.0
2017-May-23 02:57N 51°55' E 004°12'0 0.0
2017-May-23 02:26N 51°55' E 004°12'0 0.0
2017-May-23 01:56N 51°55' E 004°12'0 0.0
2017-May-23 01:30N 51°55' E 004°12'0 0.0
2017-May-23 00:57N 51°55' E 004°12'0 0.0
2017-May-23 00:30N 51°55' E 004°12'0 0.0
2017-May-23 00:00N 51°55' E 004°12'0 0.0
2017-May-22 23:30N 51°55' E 004°12'2 3.5
2017-May-22 23:00N 51°56' E 004°11'4 7.7
2017-May-22 22:30N 51°59' E 004°05'4 8.2
2017-May-22 22:00N 51°60' E 003°59'4 8.1
2017-May-22 21:30N 51°60' E 003°53'510.0
2017-May-22 21:00N 51°60' E 003°45'611.7
2017-May-22 20:30N 52°04' E 003°37'612.5
2017-May-22 20:00N 52°07' E 003°29'3911.6
2017-May-22 16:37N 52°31' E 002°38'1912.9
2017-May-22 15:10N 52°50' E 002°38'312.9
2017-May-22 14:58N 52°52' E 002°38'1212.4
2017-May-22 14:00N 53°04' E 002°37'611.8
2017-May-22 13:30N 53°10' E 002°41'611.8
2017-May-22 13:00N 53°15' E 002°44'611.7
2017-May-22 12:30N 53°21' E 002°47'611.7
2017-May-22 12:01N 53°26' E 002°51'611.8
2017-May-22 11:30N 53°32' E 002°54'612.1
2017-May-22 11:01N 53°37' E 002°58'21111.0
2017-May-21 15:45N 55°59' W 001°34'312.0
2017-May-21 15:30N 55°60' W 001°39'912.3
2017-May-21 14:48N 56°02' W 001°54'412.8
2017-May-21 14:30N 56°03' W 002°00'1312.8
2017-May-21 13:30N 56°06' W 002°22'713.0
2017-May-21 13:00N 56°07' W 002°34'713.4
2017-May-21 12:30N 56°06' W 002°46'713.4
2017-May-21 12:00N 56°04' W 002°57'612.3
2017-May-21 11:31N 56°03' W 003°08'611.6
2017-May-21 11:00N 56°01' W 003°18'610.3
2017-May-21 10:27N 56°01' W 003°28'710.4
2017-May-21 09:46N 56°02' W 003°41'0 1.1
2017-May-21 09:29N 56°02' W 003°41'0 0.6
2017-May-21 09:00N 56°02' W 003°42'0 0.0
2017-May-20 18:24N 56°02' W 003°42'0 0.0
2017-May-20 06:56N 56°02' W 003°42'0 0.0
2017-May-19 06:08N 56°02' W 003°41'0 0.0
2017-May-19 05:56N 56°02' W 003°41'0 0.0
2017-May-19 05:29N 56°02' W 003°42'0 0.0
2017-May-19 04:35N 56°02' W 003°42'0 0.0
2017-May-19 03:26N 56°02' W 003°41'0 0.0
2017-May-19 01:56N 56°02' W 003°41'0 0.0
2017-May-19 01:26N 56°02' W 003°41'0 0.0
2017-May-18 23:56N 56°02' W 003°41'0 0.0
2017-May-18 22:26N 56°02' W 003°42'0 0.0
2017-May-18 21:32N 56°02' W 003°41'0 0.0
2017-May-17 16:56N 56°02' W 003°41'0 0.0
2017-May-17 07:14N 56°02' W 003°42'0 0.0
2017-May-17 06:44N 56°02' W 003°41'0 0.0
2017-May-17 06:28N 56°02' W 003°42'1 1.0
2017-May-17 05:34N 56°02' W 003°40'0 4.3
2017-May-17 05:30N 56°02' W 003°40'810.5
2017-May-17 04:43N 56°00' W 003°25'210.2
2017-May-17 04:30N 56°01' W 003°22'611.8
2017-May-17 04:00N 56°02' W 003°11'4 7.2
2017-May-17 03:30N 56°04' W 003°06'2 4.9
2017-May-17 03:01N 56°06' W 003°06'0 0.1
2017-May-17 02:29N 56°06' W 003°06'0 0.1
2017-May-17 01:59N 56°06' W 003°06'0 0.0
2017-May-17 01:29N 56°06' W 003°06'0 0.0
2017-May-17 00:58N 56°06' W 003°06'0 0.2
2017-May-17 00:28N 56°06' W 003°06'0 0.2
2017-May-16 23:59N 56°06' W 003°06'0 0.0
2017-May-16 23:29N 56°06' W 003°06'0 0.0
2017-May-16 22:59N 56°06' W 003°06'0 0.0
2017-May-16 22:28N 56°06' W 003°06'0 0.0
2017-May-16 21:59N 56°06' W 003°06'0 0.0
2017-May-16 21:28N 56°06' W 003°06'0 0.0
2017-May-16 20:59N 56°06' W 003°06'0 0.0
2017-May-16 20:29N 56°06' W 003°06'0 0.0
2017-May-16 19:59N 56°06' W 003°06'0 0.0
2017-May-16 19:29N 56°06' W 003°06'0 0.0
2017-May-16 18:58N 56°06' W 003°06'0 0.0
2017-May-16 18:29N 56°06' W 003°06'0 0.0
2017-May-16 17:59N 56°06' W 003°06'0 0.0
2017-May-16 17:28N 56°06' W 003°06'0 0.0
2017-May-16 16:59N 56°06' W 003°06'0 0.1
2017-May-16 16:28N 56°06' W 003°06'0 0.0
2017-May-16 15:58N 56°06' W 003°06'0 0.1
2017-May-16 15:29N 56°06' W 003°06'0 0.0
2017-May-16 14:59N 56°06' W 003°06'0 0.1
2017-May-16 14:29N 56°06' W 003°06'0 0.0
2017-May-16 13:29N 56°06' W 003°06'0 0.0
2017-May-16 12:59N 56°06' W 003°06'0 0.0
2017-May-16 12:29N 56°06' W 003°06'0 0.0
2017-May-16 11:59N 56°06' W 003°06'0 0.0
2017-May-16 11:29N 56°06' W 003°06'0 0.1
2017-May-16 10:59N 56°06' W 003°06'0 0.0
2017-May-16 10:29N 56°06' W 003°06'0 0.1
2017-May-16 09:59N 56°06' W 003°06'0 0.0
2017-May-16 09:29N 56°06' W 003°06'0 0.0
2017-May-16 08:59N 56°06' W 003°06'0 0.0
2017-May-16 08:29N 56°06' W 003°06'0 0.0
2017-May-16 07:59N 56°06' W 003°06'0 0.0
2017-May-16 07:29N 56°06' W 003°06'0 0.0
2017-May-16 06:59N 56°06' W 003°06'0 0.0
2017-May-16 06:29N 56°06' W 003°06'0 0.0
2017-May-16 05:59N 56°06' W 003°06'0 0.0
2017-May-16 05:29N 56°06' W 003°06'0 0.0
2017-May-16 04:58N 56°06' W 003°06'0 0.1
2017-May-16 04:29N 56°06' W 003°06'0 0.0
2017-May-16 03:59N 56°06' W 003°06'0 0.2
2017-May-16 03:28N 56°06' W 003°06'  

Dump ship's entire track history